sensor_id;sensor_type;location;lat;lon;timestamp;pressure;altitude;pressure_sealevel;temperature;humidity
46836;BME280;32573;51.290;6.926;2023-12-28T00:00:05;99707.63;;;9.46;100.00
46836;BME280;32573;51.290;6.926;2023-12-28T00:02:34;99711.19;;;9.48;100.00
46836;BME280;32573;51.290;6.926;2023-12-28T00:05:03;99717.31;;;9.48;100.00
46836;BME280;32573;51.290;6.926;2023-12-28T00:07:31;99707.69;;;9.47;100.00
46836;BME280;32573;51.290;6.926;2023-12-28T00:10:01;99729.47;;;9.48;100.00
46836;BME280;32573;51.290;6.926;2023-12-28T00:12:32;99732.06;;;9.48;100.00
46836;BME280;32573;51.290;6.926;2023-12-28T00:15:00;99726.03;;;9.49;100.00
46836;BME280;32573;51.290;6.926;2023-12-28T00:17:28;99724.28;;;9.49;100.00
46836;BME280;32573;51.290;6.926;2023-12-28T00:19:57;99725.16;;;9.50;100.00
46836;BME280;32573;51.290;6.926;2023-12-28T00:22:25;99734.78;;;9.51;100.00
46836;BME280;32573;51.290;6.926;2023-12-28T00:24:54;99727.84;;;9.52;100.00
46836;BME280;32573;51.290;6.926;2023-12-28T00:27:23;99707.81;;;9.52;100.00
46836;BME280;32573;51.290;6.926;2023-12-28T00:29:52;99716.56;;;9.54;100.00
46836;BME280;32573;51.290;6.926;2023-12-28T00:32:20;99713.97;;;9.54;100.00
46836;BME280;32573;51.290;6.926;2023-12-28T00:34:48;99724.44;;;9.56;100.00
46836;BME280;32573;51.290;6.926;2023-12-28T00:37:17;99727.94;;;9.56;100.00
46836;BME280;32573;51.290;6.926;2023-12-28T00:39:45;99714.09;;;9.59;100.00
46836;BME280;32573;51.290;6.926;2023-12-28T00:42:14;99721.94;;;9.60;100.00
46836;BME280;32573;51.290;6.926;2023-12-28T00:44:44;99742.09;;;9.64;100.00
46836;BME280;32573;51.290;6.926;2023-12-28T00:47:12;99745.63;;;9.68;100.00
46836;BME280;32573;51.290;6.926;2023-12-28T00:49:40;99747.50;;;9.72;100.00
46836;BME280;32573;51.290;6.926;2023-12-28T00:52:09;99747.56;;;9.75;100.00
46836;BME280;32573;51.290;6.926;2023-12-28T00:54:37;99751.16;;;9.79;100.00
46836;BME280;32573;51.290;6.926;2023-12-28T00:57:05;99759.06;;;9.82;100.00
46836;BME280;32573;51.290;6.926;2023-12-28T00:59:34;99756.47;;;9.83;100.00
46836;BME280;32573;51.290;6.926;2023-12-28T01:02:04;99751.34;;;9.88;100.00
46836;BME280;32573;51.290;6.926;2023-12-28T01:04:32;99754.88;;;9.90;100.00
46836;BME280;32573;51.290;6.926;2023-12-28T01:07:01;99764.59;;;9.94;100.00
46836;BME280;32573;51.290;6.926;2023-12-28T01:09:32;99750.66;;;9.95;100.00
46836;BME280;32573;51.290;6.926;2023-12-28T01:12:03;99754.19;;;9.97;100.00
46836;BME280;32573;51.290;6.926;2023-12-28T01:14:32;99755.13;;;9.99;100.00
46836;BME280;32573;51.290;6.926;2023-12-28T01:17:01;99758.66;;;10.01;100.00
46836;BME280;32573;51.290;6.926;2023-12-28T01:19:30;99770.00;;;10.03;100.00
46836;BME280;32573;51.290;6.926;2023-12-28T01:21:59;99758.72;;;10.04;100.00
46836;BME280;32573;51.290;6.926;2023-12-28T01:24:27;99784.00;;;10.05;100.00
46836;BME280;32573;51.290;6.926;2023-12-28T01:26:55;99777.09;;;10.07;100.00
46836;BME280;32573;51.290;6.926;2023-12-28T01:29:23;99768.41;;;10.08;100.00
46836;BME280;32573;51.290;6.926;2023-12-28T01:31:52;99766.69;;;10.10;100.00
46836;BME280;32573;51.290;6.926;2023-12-28T01:34:20;99780.69;;;10.11;100.00
46836;BME280;32573;51.290;6.926;2023-12-28T01:36:51;99774.59;;;10.12;100.00
46836;BME280;32573;51.290;6.926;2023-12-28T01:39:19;99777.25;;;10.15;100.00
46836;BME280;32573;51.290;6.926;2023-12-28T01:41:48;99790.34;;;10.15;100.00
46836;BME280;32573;51.290;6.926;2023-12-28T01:44:16;99785.16;;;10.17;100.00
46836;BME280;32573;51.290;6.926;2023-12-28T01:46:45;99779.06;;;10.18;100.00
46836;BME280;32573;51.290;6.926;2023-12-28T01:49:14;99786.09;;;10.19;100.00
46836;BME280;32573;51.290;6.926;2023-12-28T01:51:43;99793.94;;;10.19;100.00
46836;BME280;32573;51.290;6.926;2023-12-28T01:54:15;99794.81;;;10.21;100.00
46836;BME280;32573;51.290;6.926;2023-12-28T01:56:44;99800.03;;;10.21;100.00
46836;BME280;32573;51.290;6.926;2023-12-28T01:59:12;99791.38;;;10.22;100.00
46836;BME280;32573;51.290;6.926;2023-12-28T02:01:41;99796.59;;;10.22;100.00
46836;BME280;32573;51.290;6.926;2023-12-28T02:04:10;99787.03;;;10.22;100.00
46836;BME280;32573;51.290;6.926;2023-12-28T02:06:38;99794.00;;;10.22;100.00
46836;BME280;32573;51.290;6.926;2023-12-28T02:09:07;99791.38;;;10.23;100.00
46836;BME280;32573;51.290;6.926;2023-12-28T02:11:37;99801.03;;;10.24;100.00
46836;BME280;32573;51.290;6.926;2023-12-28T02:14:05;99795.78;;;10.24;100.00
46836;BME280;32573;51.290;6.926;2023-12-28T02:16:37;99801.91;;;10.25;100.00
46836;BME280;32573;51.290;6.926;2023-12-28T02:19:14;99800.16;;;10.25;100.00
46836;BME280;32573;51.290;6.926;2023-12-28T02:21:46;99801.91;;;10.25;100.00
46836;BME280;32573;51.290;6.926;2023-12-28T02:24:16;99808.88;;;10.26;100.00
46836;BME280;32573;51.290;6.926;2023-12-28T02:26:45;99803.66;;;10.26;100.00
46836;BME280;32573;51.290;6.926;2023-12-28T02:29:15;99796.66;;;10.25;100.00
46836;BME280;32573;51.290;6.926;2023-12-28T02:31:46;99806.25;;;10.26;100.00
46836;BME280;32573;51.290;6.926;2023-12-28T02:34:19;99796.75;;;10.28;100.00
46836;BME280;32573;51.290;6.926;2023-12-28T02:36:50;99790.63;;;10.27;100.00
46836;BME280;32573;51.290;6.926;2023-12-28T02:39:20;99803.78;;;10.29;100.00
46836;BME280;32573;51.290;6.926;2023-12-28T02:41:51;99798.56;;;10.29;100.00
46836;BME280;32573;51.290;6.926;2023-12-28T02:44:23;99800.31;;;10.30;100.00
46836;BME280;32573;51.290;6.926;2023-12-28T02:46:51;99802.09;;;10.31;100.00
46836;BME280;32573;51.290;6.926;2023-12-28T02:49:19;99813.44;;;10.31;100.00
46836;BME280;32573;51.290;6.926;2023-12-28T02:51:49;99798.63;;;10.32;100.00
46836;BME280;32573;51.290;6.926;2023-12-28T02:54:18;99804.72;;;10.32;100.00
46836;BME280;32573;51.290;6.926;2023-12-28T02:56:47;99802.97;;;10.33;100.00
46836;BME280;32573;51.290;6.926;2023-12-28T02:59:16;99798.69;;;10.35;100.00
46836;BME280;32573;51.290;6.926;2023-12-28T03:01:45;99788.22;;;10.35;100.00
46836;BME280;32573;51.290;6.926;2023-12-28T03:04:13;99796.97;;;10.37;100.00
46836;BME280;32573;51.290;6.926;2023-12-28T03:06:46;99797.84;;;10.38;100.00
46836;BME280;32573;51.290;6.926;2023-12-28T03:09:15;99799.66;;;10.39;100.00
46836;BME280;32573;51.290;6.926;2023-12-28T03:11:43;99786.59;;;10.40;100.00
46836;BME280;32573;51.290;6.926;2023-12-28T03:14:11;99793.59;;;10.41;100.00
46836;BME280;32573;51.290;6.926;2023-12-28T03:16:41;99792.69;;;10.41;100.00
46836;BME280;32573;51.290;6.926;2023-12-28T03:19:10;99793.59;;;10.41;100.00
46836;BME280;32573;51.290;6.926;2023-12-28T03:21:39;99797.97;;;10.42;100.00
46836;BME280;32573;51.290;6.926;2023-12-28T03:24:08;99784.88;;;10.42;100.00
46836;BME280;32573;51.290;6.926;2023-12-28T03:26:38;99787.50;;;10.42;100.00
46836;BME280;32573;51.290;6.926;2023-12-28T03:29:07;99782.31;;;10.44;100.00
46836;BME280;32573;51.290;6.926;2023-12-28T03:31:38;99793.66;;;10.44;100.00
46836;BME280;32573;51.290;6.926;2023-12-28T03:34:09;99799.78;;;10.45;100.00
46836;BME280;32573;51.290;6.926;2023-12-28T03:36:37;99797.19;;;10.46;100.00
46836;BME280;32573;51.290;6.926;2023-12-28T03:39:06;99793.72;;;10.47;100.00
46836;BME280;32573;51.290;6.926;2023-12-28T03:41:34;99788.50;;;10.47;100.00
46836;BME280;32573;51.290;6.926;2023-12-28T03:44:03;99788.50;;;10.47;100.00
46836;BME280;32573;51.290;6.926;2023-12-28T03:46:31;99781.56;;;10.49;100.00
46836;BME280;32573;51.290;6.926;2023-12-28T03:49:00;99781.56;;;10.49;100.00
46836;BME280;32573;51.290;6.926;2023-12-28T03:51:30;99779.81;;;10.50;100.00
46836;BME280;32573;51.290;6.926;2023-12-28T03:53:58;99772.84;;;10.50;100.00
46836;BME280;32573;51.290;6.926;2023-12-28T03:56:27;99769.41;;;10.51;100.00
46836;BME280;32573;51.290;6.926;2023-12-28T03:58:57;99769.41;;;10.51;100.00
46836;BME280;32573;51.290;6.926;2023-12-28T04:01:25;99772.91;;;10.52;100.00
46836;BME280;32573;51.290;6.926;2023-12-28T04:03:53;99769.41;;;10.53;100.00
46836;BME280;32573;51.290;6.926;2023-12-28T04:06:22;99774.66;;;10.53;100.00
46836;BME280;32573;51.290;6.926;2023-12-28T04:08:52;99780.78;;;10.53;100.00
46836;BME280;32573;51.290;6.926;2023-12-28T04:11:20;99783.41;;;10.53;100.00
46836;BME280;32573;51.290;6.926;2023-12-28T04:13:48;99790.44;;;10.56;100.00
46836;BME280;32573;51.290;6.926;2023-12-28T04:16:16;99791.31;;;10.56;100.00
46836;BME280;32573;51.290;6.926;2023-12-28T04:18:45;99773.00;;;10.56;100.00
46836;BME280;32573;51.290;6.926;2023-12-28T04:21:13;99783.47;;;10.56;100.00
46836;BME280;32573;51.290;6.926;2023-12-28T04:23:42;99782.59;;;10.57;100.00
46836;BME280;32573;51.290;6.926;2023-12-28T04:26:11;99773.00;;;10.58;100.00
46836;BME280;32573;51.290;6.926;2023-12-28T04:28:40;99777.38;;;10.57;100.00
46836;BME280;32573;51.290;6.926;2023-12-28T04:31:08;99781.78;;;10.58;100.00
46836;BME280;32573;51.290;6.926;2023-12-28T04:33:37;99766.91;;;10.57;100.00
46836;BME280;32573;51.290;6.926;2023-12-28T04:36:06;99766.06;;;10.58;100.00
46836;BME280;32573;51.290;6.926;2023-12-28T04:38:34;99775.66;;;10.60;100.00
46836;BME280;32573;51.290;6.926;2023-12-28T04:41:03;99780.03;;;10.61;100.00
46836;BME280;32573;51.290;6.926;2023-12-28T04:43:33;99780.03;;;10.61;100.00
46836;BME280;32573;51.290;6.926;2023-12-28T04:46:03;99785.28;;;10.61;100.00
46836;BME280;32573;51.290;6.926;2023-12-28T04:48:32;99786.19;;;10.61;100.00
46836;BME280;32573;51.290;6.926;2023-12-28T04:51:02;99776.53;;;10.60;100.00
46836;BME280;32573;51.290;6.926;2023-12-28T04:53:31;99781.81;;;10.62;100.00
46836;BME280;32573;51.290;6.926;2023-12-28T04:56:01;99787.06;;;10.62;100.00
46836;BME280;32573;51.290;6.926;2023-12-28T04:58:29;99784.44;;;10.62;100.00
46836;BME280;32573;51.290;6.926;2023-12-28T05:01:01;99788.81;;;10.63;100.00
46836;BME280;32573;51.290;6.926;2023-12-28T05:03:29;99783.59;;;10.63;100.00
46836;BME280;32573;51.290;6.926;2023-12-28T05:05:58;99777.47;;;10.62;100.00
46836;BME280;32573;51.290;6.926;2023-12-28T05:08:26;99774.00;;;10.63;100.00
46836;BME280;32573;51.290;6.926;2023-12-28T05:10:55;99787.06;;;10.62;100.00
46836;BME280;32573;51.290;6.926;2023-12-28T05:13:23;99784.44;;;10.62;100.00
46836;BME280;32573;51.290;6.926;2023-12-28T05:15:51;99785.31;;;10.62;100.00
46836;BME280;32573;51.290;6.926;2023-12-28T05:18:21;99794.03;;;10.61;100.00
46836;BME280;32573;51.290;6.926;2023-12-28T05:20:50;99795.75;;;10.61;100.00
46836;BME280;32573;51.290;6.926;2023-12-28T05:23:18;99798.34;;;10.61;100.00
46836;BME280;32573;51.290;6.926;2023-12-28T05:25:46;99820.22;;;10.63;100.00
46836;BME280;32573;51.290;6.926;2023-12-28T05:28:15;99809.75;;;10.63;100.00
46836;BME280;32573;51.290;6.926;2023-12-28T05:30:43;99804.50;;;10.63;100.00
46836;BME280;32573;51.290;6.926;2023-12-28T05:33:12;99809.78;;;10.64;100.00
46836;BME280;32573;51.290;6.926;2023-12-28T05:35:41;99806.31;;;10.64;100.00
46836;BME280;32573;51.290;6.926;2023-12-28T05:38:10;99811.53;;;10.64;100.00
46836;BME280;32573;51.290;6.926;2023-12-28T05:40:38;99802.81;;;10.65;100.00
46836;BME280;32573;51.290;6.926;2023-12-28T05:43:06;99815.91;;;10.65;100.00
46836;BME280;32573;51.290;6.926;2023-12-28T05:45:35;99820.28;;;10.64;100.00
46836;BME280;32573;51.290;6.926;2023-12-28T05:48:03;99818.53;;;10.65;100.00
46836;BME280;32573;51.290;6.926;2023-12-28T05:50:32;99839.47;;;10.65;100.00
46836;BME280;32573;51.290;6.926;2023-12-28T05:53:02;99832.47;;;10.64;100.00
46836;BME280;32573;51.290;6.926;2023-12-28T05:55:31;99844.69;;;10.65;100.00
46836;BME280;32573;51.290;6.926;2023-12-28T05:57:59;99840.31;;;10.64;100.00
46836;BME280;32573;51.290;6.926;2023-12-28T06:00:28;99841.22;;;10.66;100.00
46836;BME280;32573;51.290;6.926;2023-12-28T06:02:56;99832.47;;;10.64;100.00
46836;BME280;32573;51.290;6.926;2023-12-28T06:05:25;99837.72;;;10.64;100.00
46836;BME280;32573;51.290;6.926;2023-12-28T06:07:54;99845.56;;;10.64;100.00
46836;BME280;32573;51.290;6.926;2023-12-28T06:10:24;99855.16;;;10.65;100.00
46836;BME280;32573;51.290;6.926;2023-12-28T06:12:52;99860.41;;;10.65;100.00
46836;BME280;32573;51.290;6.926;2023-12-28T06:15:20;99858.66;;;10.65;100.00
46836;BME280;32573;51.290;6.926;2023-12-28T06:17:49;99858.66;;;10.65;100.00
46836;BME280;32573;51.290;6.926;2023-12-28T06:20:17;99856.91;;;10.66;100.00
46836;BME280;32573;51.290;6.926;2023-12-28T06:22:46;99854.31;;;10.66;100.00
46836;BME280;32573;51.290;6.926;2023-12-28T06:25:16;99846.44;;;10.66;100.00
46836;BME280;32573;51.290;6.926;2023-12-28T06:27:45;99848.25;;;10.67;100.00
46836;BME280;32573;51.290;6.926;2023-12-28T06:30:14;99852.59;;;10.66;100.00
46836;BME280;32573;51.290;6.926;2023-12-28T06:32:42;99858.72;;;10.67;100.00
46836;BME280;32573;51.290;6.926;2023-12-28T06:35:11;99863.06;;;10.66;100.00
46836;BME280;32573;51.290;6.926;2023-12-28T06:37:39;99863.06;;;10.66;100.00
46836;BME280;32573;51.290;6.926;2023-12-28T06:40:08;99863.06;;;10.66;100.00
46836;BME280;32573;51.290;6.926;2023-12-28T06:42:37;99853.47;;;10.67;100.00
46836;BME280;32573;51.290;6.926;2023-12-28T06:45:07;99852.59;;;10.66;100.00
46836;BME280;32573;51.290;6.926;2023-12-28T06:47:36;99850.84;;;10.67;100.00
46836;BME280;32573;51.290;6.926;2023-12-28T06:50:05;99843.88;;;10.67;100.00
46836;BME280;32573;51.290;6.926;2023-12-28T06:52:34;99843.88;;;10.67;100.00
46836;BME280;32573;51.290;6.926;2023-12-28T06:55:03;99833.41;;;10.67;100.00
46836;BME280;32573;51.290;6.926;2023-12-28T06:57:31;99847.38;;;10.66;100.00
46836;BME280;32573;51.290;6.926;2023-12-28T06:59:59;99833.38;;;10.66;100.00
46836;BME280;32573;51.290;6.926;2023-12-28T07:02:31;99840.41;;;10.68;100.00
46836;BME280;32573;51.290;6.926;2023-12-28T07:04:59;99832.53;;;10.67;100.00
46836;BME280;32573;51.290;6.926;2023-12-28T07:07:28;99837.78;;;10.67;100.00
46836;BME280;32573;51.290;6.926;2023-12-28T07:09:56;99840.38;;;10.67;100.00
46836;BME280;32573;51.290;6.926;2023-12-28T07:12:25;99851.78;;;10.69;100.00
46836;BME280;32573;51.290;6.926;2023-12-28T07:14:53;99844.75;;;10.68;100.00
46836;BME280;32573;51.290;6.926;2023-12-28T07:17:21;99857.03;;;10.69;100.00
46836;BME280;32573;51.290;6.926;2023-12-28T07:19:51;99862.25;;;10.69;100.00
46836;BME280;32573;51.290;6.926;2023-12-28T07:22:19;99852.66;;;10.69;100.00
46836;BME280;32573;51.290;6.926;2023-12-28T07:24:48;99864.88;;;10.70;100.00
46836;BME280;32573;51.290;6.926;2023-12-28T07:27:16;99864.94;;;10.72;100.00
46836;BME280;32573;51.290;6.926;2023-12-28T07:29:45;99857.09;;;10.72;100.00
46836;BME280;32573;51.290;6.926;2023-12-28T07:32:13;99867.56;;;10.72;100.00
46836;BME280;32573;51.290;6.926;2023-12-28T07:34:42;99857.97;;;10.72;100.00
46836;BME280;32573;51.290;6.926;2023-12-28T07:37:12;99862.38;;;10.73;100.00
46836;BME280;32573;51.290;6.926;2023-12-28T07:39:40;99860.63;;;10.74;100.00
46836;BME280;32573;51.290;6.926;2023-12-28T07:42:08;99867.59;;;10.75;100.00
46836;BME280;32573;51.290;6.926;2023-12-28T07:44:36;99880.75;;;10.76;100.00
46836;BME280;32573;51.290;6.926;2023-12-28T07:47:05;99883.31;;;10.75;100.00
46836;BME280;32573;51.290;6.926;2023-12-28T07:49:36;99878.97;;;10.75;100.00
46836;BME280;32573;51.290;6.926;2023-12-28T07:52:05;99878.97;;;10.75;100.00
46836;BME280;32573;51.290;6.926;2023-12-28T07:54:34;99889.44;;;10.75;100.00
46836;BME280;32573;51.290;6.926;2023-12-28T07:57:03;99903.38;;;10.74;100.00
46836;BME280;32573;51.290;6.926;2023-12-28T07:59:32;99903.38;;;10.74;100.00
46836;BME280;32573;51.290;6.926;2023-12-28T08:02:00;99904.25;;;10.75;100.00
46836;BME280;32573;51.290;6.926;2023-12-28T08:04:28;99905.13;;;10.75;100.00
46836;BME280;32573;51.290;6.926;2023-12-28T08:06:57;99914.72;;;10.75;100.00
46836;BME280;32573;51.290;6.926;2023-12-28T08:09:25;99911.28;;;10.76;100.00
46836;BME280;32573;51.290;6.926;2023-12-28T08:11:55;99898.19;;;10.76;100.00
46836;BME280;32573;51.290;6.926;2023-12-28T08:14:23;99898.22;;;10.77;100.00
46836;BME280;32573;51.290;6.926;2023-12-28T08:16:52;99913.03;;;10.77;100.00
46836;BME280;32573;51.290;6.926;2023-12-28T08:19:20;99915.69;;;10.78;100.00
46836;BME280;32573;51.290;6.926;2023-12-28T08:21:48;99927.06;;;10.79;100.00
46836;BME280;32573;51.290;6.926;2023-12-28T08:24:17;99920.03;;;10.78;100.00
46836;BME280;32573;51.290;6.926;2023-12-28T08:26:45;99913.09;;;10.78;100.00
46836;BME280;32573;51.290;6.926;2023-12-28T08:29:15;99916.59;;;10.79;100.00
46836;BME280;32573;51.290;6.926;2023-12-28T08:31:45;99906.09;;;10.79;100.00
46836;BME280;32573;51.290;6.926;2023-12-28T08:34:14;99913.97;;;10.79;100.00
46836;BME280;32573;51.290;6.926;2023-12-28T08:36:43;99907.88;;;10.80;100.00
46836;BME280;32573;51.290;6.926;2023-12-28T08:39:12;99914.88;;;10.81;100.00
46836;BME280;32573;51.290;6.926;2023-12-28T08:41:40;99921.88;;;10.82;100.00
46836;BME280;32573;51.290;6.926;2023-12-28T08:44:08;99928.00;;;10.83;100.00
46836;BME280;32573;51.290;6.926;2023-12-28T08:46:38;99930.63;;;10.83;100.00
46836;BME280;32573;51.290;6.926;2023-12-28T08:49:06;99929.78;;;10.84;100.00
46836;BME280;32573;51.290;6.926;2023-12-28T08:51:35;99929.78;;;10.84;100.00
46836;BME280;32573;51.290;6.926;2023-12-28T08:54:03;99927.19;;;10.85;100.00
46836;BME280;32573;51.290;6.926;2023-12-28T08:56:31;99932.41;;;10.85;100.00
46836;BME280;32573;51.290;6.926;2023-12-28T08:58:59;99932.47;;;10.87;100.00
46836;BME280;32573;51.290;6.926;2023-12-28T09:01:30;99935.09;;;10.88;100.00
46836;BME280;32573;51.290;6.926;2023-12-28T09:04:00;99937.72;;;10.88;100.00
46836;BME280;32573;51.290;6.926;2023-12-28T09:06:29;99940.38;;;10.90;100.00
46836;BME280;32573;51.290;6.926;2023-12-28T09:08:57;99938.63;;;10.90;100.00
46836;BME280;32573;51.290;6.926;2023-12-28T09:11:26;99937.81;;;10.91;100.00
46836;BME280;32573;51.290;6.926;2023-12-28T09:13:55;99935.19;;;10.93;100.00
46836;BME280;32573;51.290;6.926;2023-12-28T09:16:24;99929.97;;;10.93;100.00
46836;BME280;32573;51.290;6.926;2023-12-28T09:18:52;99933.50;;;10.93;100.00
46836;BME280;32573;51.290;6.926;2023-12-28T09:21:22;99934.38;;;10.95;100.00
46836;BME280;32573;51.290;6.926;2023-12-28T09:23:50;99947.47;;;10.95;100.00
46836;BME280;32573;51.290;6.926;2023-12-28T09:26:18;99935.31;;;10.97;100.00
46836;BME280;32573;51.290;6.926;2023-12-28T09:28:47;99939.69;;;10.97;100.00
46836;BME280;32573;51.290;6.926;2023-12-28T09:31:15;99938.84;;;10.99;100.00
46836;BME280;32573;51.290;6.926;2023-12-28T09:33:43;99947.59;;;11.00;100.00
46836;BME280;32573;51.290;6.926;2023-12-28T09:36:12;99946.78;;;11.02;100.00
46836;BME280;32573;51.290;6.926;2023-12-28T09:38:42;99949.41;;;11.02;100.00
46836;BME280;32573;51.290;6.926;2023-12-28T09:41:11;99952.06;;;11.06;100.00
46836;BME280;32573;51.290;6.926;2023-12-28T09:43:47;99953.88;;;11.07;100.00
46836;BME280;32573;51.290;6.926;2023-12-28T09:46:17;99950.38;;;11.08;100.00
46836;BME280;32573;51.290;6.926;2023-12-28T09:48:45;99953.91;;;11.10;100.00
46836;BME280;32573;51.290;6.926;2023-12-28T09:51:14;99952.19;;;11.10;100.00
46836;BME280;32573;51.290;6.926;2023-12-28T09:53:46;99947.00;;;11.12;100.00
46836;BME280;32573;51.290;6.926;2023-12-28T09:56:15;99933.91;;;11.12;100.00
46836;BME280;32573;51.290;6.926;2023-12-28T09:58:46;99927.84;;;11.14;100.00
46836;BME280;32573;51.290;6.926;2023-12-28T10:01:16;99936.63;;;11.16;100.00
46836;BME280;32573;51.290;6.926;2023-12-28T10:03:45;99934.00;;;11.18;100.00
46836;BME280;32573;51.290;6.926;2023-12-28T10:06:13;99934.00;;;11.18;100.00
46836;BME280;32573;51.290;6.926;2023-12-28T10:08:48;99937.56;;;11.20;100.00
46836;BME280;32573;51.290;6.926;2023-12-28T10:11:17;99934.09;;;11.21;100.00
46836;BME280;32573;51.290;6.926;2023-12-28T10:13:46;99924.50;;;11.23;100.00
46836;BME280;32573;51.290;6.926;2023-12-28T10:16:16;99926.31;;;11.24;100.00
46836;BME280;32573;51.290;6.926;2023-12-28T10:18:45;99921.13;;;11.27;100.00
46836;BME280;32573;51.290;6.926;2023-12-28T10:21:13;99931.59;;;11.27;100.00
46836;BME280;32573;51.290;6.926;2023-12-28T10:23:42;99938.59;;;11.28;100.00
46836;BME280;32573;51.290;6.926;2023-12-28T10:26:12;99925.53;;;11.30;100.00
46836;BME280;32573;51.290;6.926;2023-12-28T10:28:40;99932.56;;;11.31;100.00
46836;BME280;32573;51.290;6.926;2023-12-28T10:31:09;99933.44;;;11.31;100.00
46836;BME280;32573;51.290;6.926;2023-12-28T10:33:39;99932.56;;;11.31;100.00
46836;BME280;32573;51.290;6.926;2023-12-28T10:36:08;99945.69;;;11.32;100.00
46836;BME280;32573;51.290;6.926;2023-12-28T10:38:38;99938.75;;;11.34;100.00
46836;BME280;32573;51.290;6.926;2023-12-28T10:41:07;99931.81;;;11.36;100.00
46836;BME280;32573;51.290;6.926;2023-12-28T10:43:43;99935.34;;;11.38;100.00
46836;BME280;32573;51.290;6.926;2023-12-28T10:46:21;99931.00;;;11.40;100.00
46836;BME280;32573;51.290;6.926;2023-12-28T10:48:58;99931.91;;;11.42;100.00
46836;BME280;32573;51.290;6.926;2023-12-28T10:51:27;99933.75;;;11.47;100.00
46836;BME280;32573;51.290;6.926;2023-12-28T10:54:07;99919.78;;;11.48;100.00
46836;BME280;32573;51.290;6.926;2023-12-28T10:56:44;99924.19;;;11.50;100.00
46836;BME280;32573;51.290;6.926;2023-12-28T10:59:19;99911.13;;;11.52;100.00
46836;BME280;32573;51.290;6.926;2023-12-28T11:01:55;99915.56;;;11.54;100.00
46836;BME280;32573;51.290;6.926;2023-12-28T11:04:34;99925.22;;;11.57;100.00
46836;BME280;32573;51.290;6.926;2023-12-28T11:07:09;99919.09;;;11.58;100.00
46836;BME280;32573;51.290;6.926;2023-12-28T11:09:41;99915.66;;;11.60;100.00
46836;BME280;32573;51.290;6.926;2023-12-28T11:12:10;99917.44;;;11.61;100.00
46836;BME280;32573;51.290;6.926;2023-12-28T11:14:41;99910.50;;;11.63;100.00
46836;BME280;32573;51.290;6.926;2023-12-28T11:17:10;99909.69;;;11.66;100.00
46836;BME280;32573;51.290;6.926;2023-12-28T11:19:39;99916.69;;;11.67;100.00
46836;BME280;32573;51.290;6.926;2023-12-28T11:22:08;99908.84;;;11.69;100.00
46836;BME280;32573;51.290;6.926;2023-12-28T11:24:37;99904.53;;;11.71;100.00
46836;BME280;32573;51.290;6.926;2023-12-28T11:27:05;99910.66;;;11.71;100.00
46836;BME280;32573;51.290;6.926;2023-12-28T11:29:37;99904.53;;;11.72;100.00
46836;BME280;32573;51.290;6.926;2023-12-28T11:32:08;99906.34;;;11.75;100.00
46836;BME280;32573;51.290;6.926;2023-12-28T11:34:36;99895.88;;;11.76;100.00
46836;BME280;32573;51.290;6.926;2023-12-28T11:37:08;99895.91;;;11.78;100.00
46836;BME280;32573;51.290;6.926;2023-12-28T11:39:37;99901.19;;;11.79;100.00
46836;BME280;32573;51.290;6.926;2023-12-28T11:42:07;99895.09;;;11.82;100.00
46836;BME280;32573;51.290;6.926;2023-12-28T11:44:40;99900.34;;;11.82;100.00
46836;BME280;32573;51.290;6.926;2023-12-28T11:47:13;99885.50;;;11.82;100.00
46836;BME280;32573;51.290;6.926;2023-12-28T11:49:41;99889.91;;;11.85;100.00
46836;BME280;32573;51.290;6.926;2023-12-28T11:52:22;99876.88;;;11.86;100.00
46836;BME280;32573;51.290;6.926;2023-12-28T11:54:51;99873.38;;;11.87;100.00
46836;BME280;32573;51.290;6.926;2023-12-28T11:57:20;99879.53;;;11.90;100.00
46836;BME280;32573;51.290;6.926;2023-12-28T11:59:53;99872.56;;;11.90;100.00
46836;BME280;32573;51.290;6.926;2023-12-28T12:02:23;99876.97;;;11.91;100.00
46836;BME280;32573;51.290;6.926;2023-12-28T12:04:53;99882.22;;;11.93;100.00
46836;BME280;32573;51.290;6.926;2023-12-28T12:07:23;99884.00;;;11.94;100.00
46836;BME280;32573;51.290;6.926;2023-12-28T12:09:55;99881.38;;;11.95;100.00
46836;BME280;32573;51.290;6.926;2023-12-28T12:12:24;99876.19;;;11.97;100.00
46836;BME280;32573;51.290;6.926;2023-12-28T12:14:53;99879.72;;;11.99;100.00
46836;BME280;32573;51.290;6.926;2023-12-28T12:17:23;99882.34;;;11.99;100.00
46836;BME280;32573;51.290;6.926;2023-12-28T12:19:53;99884.09;;;12.00;100.00
46836;BME280;32573;51.290;6.926;2023-12-28T12:22:23;99877.09;;;11.99;100.00
46836;BME280;32573;51.290;6.926;2023-12-28T12:24:56;99874.47;;;12.00;100.00
46836;BME280;32573;51.290;6.926;2023-12-28T12:27:26;99874.47;;;11.99;100.00
46836;BME280;32573;51.290;6.926;2023-12-28T12:29:54;99863.09;;;11.98;100.00
46836;BME280;32573;51.290;6.926;2023-12-28T12:32:24;99855.22;;;11.98;100.00
46836;BME280;32573;51.290;6.926;2023-12-28T12:34:53;99859.56;;;11.98;100.00
46836;BME280;32573;51.290;6.926;2023-12-28T12:37:22;99861.34;;;11.99;100.00
46836;BME280;32573;51.290;6.926;2023-12-28T12:39:51;99859.59;;;11.99;100.00
46836;BME280;32573;51.290;6.926;2023-12-28T12:42:21;99852.63;;;12.00;100.00
46836;BME280;32573;51.290;6.926;2023-12-28T12:44:49;99845.63;;;11.99;100.00
46836;BME280;32573;51.290;6.926;2023-12-28T12:47:18;99840.38;;;11.99;100.00
46836;BME280;32573;51.290;6.926;2023-12-28T12:49:48;99838.66;;;12.01;100.00
46836;BME280;32573;51.290;6.926;2023-12-28T12:52:16;99840.41;;;12.02;100.00
46836;BME280;32573;51.290;6.926;2023-12-28T12:54:52;99842.16;;;12.03;100.00
46836;BME280;32573;51.290;6.926;2023-12-28T12:57:21;99839.53;;;12.03;100.00
46836;BME280;32573;51.290;6.926;2023-12-28T12:59:50;99839.53;;;12.03;100.00